
<gpx xmlns="http://www.topografix.com/GPX/1/1" xmlns:gpxx="http://www.garmin.com/xmlschemas/GpxExtensions/v3" xmlns:xsi="http://www.w3.org/2001/XMLSchema-instance" version="1.1" creator="Adze - https://getadze.com/" xsi:schemaLocation="http://www.topografix.com/GPX/1/1 http://www.topografix.com/GPX/1/1/gpx.xsd http://www.garmin.com/xmlschemas/GpxExtensions/v3 http://www.garmin.com/xmlschemas/GpxExtensionsv3.xsd">
    <metadata>
        <name>Untitled Document</name>
        <link href="http://www.garmin.com"></link>
        <time>2018-02-27T06:20:15.863Z</time>
    </metadata>
    <wpt lon="101.052599" lat="13.215369">
        <ele>89.000000</ele>
        <name>Khao Kheow Car Park</name>
        <cmt>26-MAY-12 12:48:53</cmt>
        <desc>26-MAY-12 12:48:53</desc>
        <sym>Parking Area</sym>
        <extensions>
            <gpxx:WaypointExtension xmlns:gpxx="http://www.garmin.com/xmlschemas/GpxExtensions/v3">
                <gpxx:DisplayMode>SymbolOnly</gpxx:DisplayMode>
            </gpxx:WaypointExtension>
        </extensions>
    </wpt>
    <wpt lon="101.115726" lat="13.232495">
        <ele>84.000000</ele>
        <name>Water Sat 1</name>
        <cmt>26-MAY-12 15:22:47</cmt>
        <desc>26-MAY-12 15:22:47</desc>
        <sym>Drinking Water</sym>
        <extensions>
            <gpxx:WaypointExtension xmlns:gpxx="http://www.garmin.com/xmlschemas/GpxExtensions/v3">
                <gpxx:DisplayMode>SymbolOnly</gpxx:DisplayMode>
            </gpxx:WaypointExtension>
        </extensions>
    </wpt>
    <trk>
        <name>Sat</name>
        <extensions>
            <gpxx:TrackExtension xmlns:gpxx="http://www.garmin.com/xmlschemas/GpxExtensions/v3">
                <gpxx:DisplayColor>Red</gpxx:DisplayColor>
            </gpxx:TrackExtension>
        </extensions>
        <trkseg>
            <trkpt lon="101.052652" lat="13.215124">
                <ele>90.981934</ele>
                <time>2012-05-26T06:00:43Z</time>
            </trkpt>
            <trkpt lon="101.046168" lat="13.215253">
                <ele>72.236206</ele>
                <time>2012-05-26T06:02:32Z</time>
            </trkpt>
            <trkpt lon="101.040999" lat="13.212596">
                <ele>63.103638</ele>
                <time>2012-05-26T06:04:00Z</time>
            </trkpt>
            <trkpt lon="101.039630" lat="13.210298">
                <ele>61.661743</ele>
                <time>2012-05-26T06:04:47Z</time>
            </trkpt>
            <trkpt lon="101.039722" lat="13.210112">
                <ele>62.142334</ele>
                <time>2012-05-26T06:04:54Z</time>
            </trkpt>
            <trkpt lon="101.040804" lat="13.209744">
                <ele>64.065063</ele>
                <time>2012-05-26T06:05:18Z</time>
            </trkpt>
            <trkpt lon="101.041100" lat="13.209338">
                <ele>64.065063</ele>
                <time>2012-05-26T06:05:29Z</time>
            </trkpt>
            <trkpt lon="101.041171" lat="13.207508">
                <ele>65.507080</ele>
                <time>2012-05-26T06:06:06Z</time>
            </trkpt>
            <trkpt lon="101.041198" lat="13.205341">
                <ele>65.026367</ele>
                <time>2012-05-26T06:06:47Z</time>
            </trkpt>
            <trkpt lon="101.041480" lat="13.205082">
                <ele>68.871582</ele>
                <time>2012-05-26T06:06:56Z</time>
            </trkpt>
            <trkpt lon="101.042256" lat="13.205008">
                <ele>73.197632</ele>
                <time>2012-05-26T06:07:16Z</time>
            </trkpt>
            <trkpt lon="101.043574" lat="13.204764">
                <ele>76.562134</ele>
                <time>2012-05-26T06:07:54Z</time>
            </trkpt>
            <trkpt lon="101.043685" lat="13.204514">
                <ele>76.081421</ele>
                <time>2012-05-26T06:08:01Z</time>
            </trkpt>
            <trkpt lon="101.043430" lat="13.202958">
                <ele>75.120239</ele>
                <time>2012-05-26T06:08:29Z</time>
            </trkpt>
            <trkpt lon="101.043143" lat="13.201654">
                <ele>71.274902</ele>
                <time>2012-05-26T06:08:50Z</time>
            </trkpt>
            <trkpt lon="101.042558" lat="13.200988">
                <ele>68.390869</ele>
                <time>2012-05-26T06:09:07Z</time>
            </trkpt>
            <trkpt lon="101.042961" lat="13.200328">
                <ele>68.390869</ele>
                <time>2012-05-26T06:09:35Z</time>
            </trkpt>
            <trkpt lon="101.042956" lat="13.199063">
                <ele>69.832886</ele>
                <time>2012-05-26T06:11:19Z</time>
            </trkpt>
            <trkpt lon="101.043896" lat="13.196506">
                <ele>76.562134</ele>
                <time>2012-05-26T06:12:33Z</time>
            </trkpt>
            <trkpt lon="101.044172" lat="13.195646">
                <ele>78.004028</ele>
                <time>2012-05-26T06:12:55Z</time>
            </trkpt>
            <trkpt lon="101.044813" lat="13.194211">
                <ele>79.446045</ele>
                <time>2012-05-26T06:13:31Z</time>
            </trkpt>
            <trkpt lon="101.045164" lat="13.193731">
                <ele>79.446045</ele>
                <time>2012-05-26T06:13:44Z</time>
            </trkpt>
            <trkpt lon="101.045601" lat="13.193744">
                <ele>81.368774</ele>
                <time>2012-05-26T06:13:54Z</time>
            </trkpt>
            <trkpt lon="101.046489" lat="13.194410">
                <ele>82.330078</ele>
                <time>2012-05-26T06:14:26Z</time>
            </trkpt>
            <trkpt lon="101.047431" lat="13.194798">
                <ele>84.252685</ele>
                <time>2012-05-26T06:14:46Z</time>
            </trkpt>
            <trkpt lon="101.049334" lat="13.195306">
                <ele>86.656006</ele>
                <time>2012-05-26T06:15:25Z</time>
            </trkpt>
            <trkpt lon="101.049882" lat="13.196424">
                <ele>90.020630</ele>
                <time>2012-05-26T06:16:04Z</time>
            </trkpt>
            <trkpt lon="101.050335" lat="13.196809">
                <ele>89.539917</ele>
                <time>2012-05-26T06:16:21Z</time>
            </trkpt>
            <trkpt lon="101.051635" lat="13.197543">
                <ele>94.346558</ele>
                <time>2012-05-26T06:17:13Z</time>
            </trkpt>
            <trkpt lon="101.052762" lat="13.199140">
                <ele>105.401733</ele>
                <time>2012-05-26T06:18:25Z</time>
            </trkpt>
            <trkpt lon="101.053077" lat="13.198984">
                <ele>110.688843</ele>
                <time>2012-05-26T06:18:43Z</time>
            </trkpt>
            <trkpt lon="101.053289" lat="13.198730">
                <ele>111.169556</ele>
                <time>2012-05-26T06:18:58Z</time>
            </trkpt>
            <trkpt lon="101.053362" lat="13.198274">
                <ele>110.688843</ele>
                <time>2012-05-26T06:19:14Z</time>
            </trkpt>
            <trkpt lon="101.054428" lat="13.198016">
                <ele>128.954102</ele>
                <time>2012-05-26T06:21:13Z</time>
            </trkpt>
            <trkpt lon="101.055304" lat="13.197918">
                <ele>134.241211</ele>
                <time>2012-05-26T06:21:55Z</time>
            </trkpt>
            <trkpt lon="101.055660" lat="13.198622">
                <ele>136.644653</ele>
                <time>2012-05-26T06:27:27Z</time>
            </trkpt>
            <trkpt lon="101.055536" lat="13.198847">
                <ele>136.644653</ele>
                <time>2012-05-26T06:27:44Z</time>
            </trkpt>
            <trkpt lon="101.055957" lat="13.199064">
                <ele>142.893066</ele>
                <time>2012-05-26T06:27:50Z</time>
            </trkpt>
            <trkpt lon="101.055858" lat="13.199154">
                <ele>149.141602</ele>
                <time>2012-05-26T06:27:56Z</time>
            </trkpt>
            <trkpt lon="101.055756" lat="13.199226">
                <ele>149.141602</ele>
                <time>2012-05-26T06:28:07Z</time>
            </trkpt>
            <trkpt lon="101.055643" lat="13.199342">
                <ele>145.296387</ele>
                <time>2012-05-26T06:28:38Z</time>
            </trkpt>
            <trkpt lon="101.055740" lat="13.199546">
                <ele>145.296387</ele>
                <time>2012-05-26T06:29:21Z</time>
            </trkpt>
            <trkpt lon="101.055836" lat="13.199732">
                <ele>142.893066</ele>
                <time>2012-05-26T06:29:54Z</time>
            </trkpt>
            <trkpt lon="101.056204" lat="13.199526">
                <ele>153.467651</ele>
                <time>2012-05-26T06:30:50Z</time>
            </trkpt>
            <trkpt lon="101.056501" lat="13.199543">
                <ele>158.274170</ele>
                <time>2012-05-26T06:31:10Z</time>
            </trkpt>
            <trkpt lon="101.057276" lat="13.200705">
                <ele>165.964722</ele>
                <time>2012-05-26T06:33:10Z</time>
            </trkpt>
            <trkpt lon="101.057971" lat="13.201068">
                <ele>184.710571</ele>
                <time>2012-05-26T06:35:08Z</time>
            </trkpt>
            <trkpt lon="101.058788" lat="13.201517">
                <ele>186.152466</ele>
                <time>2012-05-26T06:36:28Z</time>
            </trkpt>
            <trkpt lon="101.059286" lat="13.201450">
                <ele>188.075073</ele>
                <time>2012-05-26T06:36:53Z</time>
            </trkpt>
            <trkpt lon="101.059868" lat="13.201227">
                <ele>192.881714</ele>
                <time>2012-05-26T06:37:31Z</time>
            </trkpt>
            <trkpt lon="101.059734" lat="13.200693">
                <ele>200.572266</ele>
                <time>2012-05-26T06:38:37Z</time>
            </trkpt>
            <trkpt lon="101.059900" lat="13.200546">
                <ele>203.456177</ele>
                <time>2012-05-26T06:38:59Z</time>
            </trkpt>
            <trkpt lon="101.060008" lat="13.200400">
                <ele>205.378784</ele>
                <time>2012-05-26T06:39:19Z</time>
            </trkpt>
            <trkpt lon="101.060485" lat="13.200147">
                <ele>202.975464</ele>
                <time>2012-05-26T06:39:47Z</time>
            </trkpt>
            <trkpt lon="101.060857" lat="13.199638">
                <ele>202.494873</ele>
                <time>2012-05-26T06:40:12Z</time>
            </trkpt>
            <trkpt lon="101.061518" lat="13.199932">
                <ele>202.975464</ele>
                <time>2012-05-26T06:40:50Z</time>
            </trkpt>
            <trkpt lon="101.062511" lat="13.201854">
                <ele>211.146728</ele>
                <time>2012-05-26T06:43:07Z</time>
            </trkpt>
            <trkpt lon="101.062415" lat="13.202760">
                <ele>220.279175</ele>
                <time>2012-05-26T06:44:49Z</time>
            </trkpt>
            <trkpt lon="101.062526" lat="13.202915">
                <ele>222.682495</ele>
                <time>2012-05-26T06:45:10Z</time>
            </trkpt>
            <trkpt lon="101.062641" lat="13.204685">
                <ele>226.047119</ele>
                <time>2012-05-26T06:46:51Z</time>
            </trkpt>
            <trkpt lon="101.063110" lat="13.206007">
                <ele>226.527832</ele>
                <time>2012-05-26T06:47:38Z</time>
            </trkpt>
            <trkpt lon="101.063236" lat="13.206230">
                <ele>225.085938</ele>
                <time>2012-05-26T06:47:46Z</time>
            </trkpt>
            <trkpt lon="101.063377" lat="13.206251">
                <ele>224.605225</ele>
                <time>2012-05-26T06:47:52Z</time>
            </trkpt>
            <trkpt lon="101.063431" lat="13.206529">
                <ele>223.643799</ele>
                <time>2012-05-26T06:48:03Z</time>
            </trkpt>
            <trkpt lon="101.063355" lat="13.206692">
                <ele>220.759888</ele>
                <time>2012-05-26T06:48:12Z</time>
            </trkpt>
            <trkpt lon="101.063517" lat="13.207187">
                <ele>219.317993</ele>
                <time>2012-05-26T06:48:29Z</time>
            </trkpt>
            <trkpt lon="101.063687" lat="13.207326">
                <ele>219.798584</ele>
                <time>2012-05-26T06:48:38Z</time>
            </trkpt>
            <trkpt lon="101.064406" lat="13.207108">
                <ele>230.853760</ele>
                <time>2012-05-26T06:50:18Z</time>
            </trkpt>
            <trkpt lon="101.064892" lat="13.206975">
                <ele>234.218384</ele>
                <time>2012-05-26T06:50:58Z</time>
            </trkpt>
            <trkpt lon="101.065059" lat="13.207495">
                <ele>247.676758</ele>
                <time>2012-05-26T06:52:42Z</time>
            </trkpt>
            <trkpt lon="101.065124" lat="13.207809">
                <ele>252.483398</ele>
                <time>2012-05-26T06:53:24Z</time>
            </trkpt>
            <trkpt lon="101.065217" lat="13.208027">
                <ele>252.963989</ele>
                <time>2012-05-26T06:54:00Z</time>
            </trkpt>
            <trkpt lon="101.065444" lat="13.208154">
                <ele>255.848023</ele>
                <time>2012-05-26T06:55:16Z</time>
            </trkpt>
            <trkpt lon="101.065890" lat="13.208308">
                <ele>251.041382</ele>
                <time>2012-05-26T06:55:47Z</time>
            </trkpt>
            <trkpt lon="101.066192" lat="13.208188">
                <ele>252.002808</ele>
                <time>2012-05-26T06:56:01Z</time>
            </trkpt>
            <trkpt lon="101.066629" lat="13.207733">
                <ele>265.461304</ele>
                <time>2012-05-26T06:57:54Z</time>
            </trkpt>
            <trkpt lon="101.067063" lat="13.207613">
                <ele>273.632446</ele>
                <time>2012-05-26T06:59:26Z</time>
            </trkpt>
            <trkpt lon="101.068747" lat="13.207220">
                <ele>270.748413</ele>
                <time>2012-05-26T07:00:38Z</time>
            </trkpt>
            <trkpt lon="101.069500" lat="13.207676">
                <ele>272.671143</ele>
                <time>2012-05-26T07:01:47Z</time>
            </trkpt>
            <trkpt lon="101.069902" lat="13.208472">
                <ele>258.251343</ele>
                <time>2012-05-26T07:02:19Z</time>
            </trkpt>
            <trkpt lon="101.070430" lat="13.208828">
                <ele>249.118774</ele>
                <time>2012-05-26T07:03:38Z</time>
            </trkpt>
            <trkpt lon="101.070907" lat="13.208515">
                <ele>240.947632</ele>
                <time>2012-05-26T07:04:59Z</time>
            </trkpt>
            <trkpt lon="101.071244" lat="13.208590">
                <ele>232.776489</ele>
                <time>2012-05-26T07:05:42Z</time>
            </trkpt>
            <trkpt lon="101.071518" lat="13.208300">
                <ele>226.047119</ele>
                <time>2012-05-26T07:06:42Z</time>
            </trkpt>
            <trkpt lon="101.072186" lat="13.208445">
                <ele>211.627441</ele>
                <time>2012-05-26T07:07:58Z</time>
            </trkpt>
            <trkpt lon="101.072246" lat="13.208517">
                <ele>209.224121</ele>
                <time>2012-05-26T07:08:18Z</time>
            </trkpt>
            <trkpt lon="101.072342" lat="13.208484">
                <ele>211.627441</ele>
                <time>2012-05-26T07:08:42Z</time>
            </trkpt>
            <trkpt lon="101.072453" lat="13.208414">
                <ele>209.224121</ele>
                <time>2012-05-26T07:09:05Z</time>
            </trkpt>
            <trkpt lon="101.072698" lat="13.208350">
                <ele>211.146728</ele>
                <time>2012-05-26T07:09:34Z</time>
            </trkpt>
            <trkpt lon="101.073010" lat="13.208178">
                <ele>204.417481</ele>
                <time>2012-05-26T07:10:24Z</time>
            </trkpt>
            <trkpt lon="101.073315" lat="13.208216">
                <ele>202.975464</ele>
                <time>2012-05-26T07:10:59Z</time>
            </trkpt>
            <trkpt lon="101.073951" lat="13.208007">
                <ele>185.671753</ele>
                <time>2012-05-26T07:12:34Z</time>
            </trkpt>
            <trkpt lon="101.074404" lat="13.207516">
                <ele>181.826416</ele>
                <time>2012-05-26T07:14:23Z</time>
            </trkpt>
            <trkpt lon="101.074628" lat="13.207358">
                <ele>177.981201</ele>
                <time>2012-05-26T07:15:16Z</time>
            </trkpt>
            <trkpt lon="101.074955" lat="13.207388">
                <ele>187.113769</ele>
                <time>2012-05-26T07:17:31Z</time>
            </trkpt>
            <trkpt lon="101.075453" lat="13.207410">
                <ele>185.191162</ele>
                <time>2012-05-26T07:18:52Z</time>
            </trkpt>
            <trkpt lon="101.075605" lat="13.207417">
                <ele>179.903809</ele>
                <time>2012-05-26T07:19:13Z</time>
            </trkpt>
            <trkpt lon="101.075683" lat="13.207550">
                <ele>171.732666</ele>
                <time>2012-05-26T07:19:36Z</time>
            </trkpt>
            <trkpt lon="101.076797" lat="13.207976">
                <ele>155.870972</ele>
                <time>2012-05-26T07:21:49Z</time>
            </trkpt>
            <trkpt lon="101.077200" lat="13.207891">
                <ele>149.141602</ele>
                <time>2012-05-26T07:22:43Z</time>
            </trkpt>
            <trkpt lon="101.077279" lat="13.207705">
                <ele>147.218994</ele>
                <time>2012-05-26T07:23:16Z</time>
            </trkpt>
            <trkpt lon="101.077520" lat="13.207563">
                <ele>147.218994</ele>
                <time>2012-05-26T07:24:10Z</time>
            </trkpt>
            <trkpt lon="101.078723" lat="13.207252">
                <ele>141.931763</ele>
                <time>2012-05-26T07:25:33Z</time>
            </trkpt>
            <trkpt lon="101.079290" lat="13.207220">
                <ele>139.528442</ele>
                <time>2012-05-26T07:26:29Z</time>
            </trkpt>
            <trkpt lon="101.079501" lat="13.207438">
                <ele>137.125244</ele>
                <time>2012-05-26T07:26:40Z</time>
            </trkpt>
            <trkpt lon="101.080899" lat="13.207380">
                <ele>133.279907</ele>
                <time>2012-05-26T07:27:56Z</time>
            </trkpt>
            <trkpt lon="101.081248" lat="13.207346">
                <ele>131.357300</ele>
                <time>2012-05-26T07:28:26Z</time>
            </trkpt>
            <trkpt lon="101.081352" lat="13.207578">
                <ele>132.318603</ele>
                <time>2012-05-26T07:28:54Z</time>
            </trkpt>
            <trkpt lon="101.081373" lat="13.207686">
                <ele>129.915283</ele>
                <time>2012-05-26T07:29:09Z</time>
            </trkpt>
            <trkpt lon="101.082118" lat="13.208253">
                <ele>125.589355</ele>
                <time>2012-05-26T07:31:52Z</time>
            </trkpt>
            <trkpt lon="101.082167" lat="13.208338">
                <ele>131.837891</ele>
                <time>2012-05-26T07:32:08Z</time>
            </trkpt>
            <trkpt lon="101.082230" lat="13.208446">
                <ele>134.241211</ele>
                <time>2012-05-26T07:32:28Z</time>
            </trkpt>
            <trkpt lon="101.082252" lat="13.208566">
                <ele>139.047852</ele>
                <time>2012-05-26T07:32:46Z</time>
            </trkpt>
            <trkpt lon="101.082206" lat="13.208880">
                <ele>151.064209</ele>
                <time>2012-05-26T07:33:55Z</time>
            </trkpt>
            <trkpt lon="101.082215" lat="13.208990">
                <ele>154.428955</ele>
                <time>2012-05-26T07:35:01Z</time>
            </trkpt>
            <trkpt lon="101.082228" lat="13.209049">
                <ele>154.909546</ele>
                <time>2012-05-26T07:35:24Z</time>
            </trkpt>
            <trkpt lon="101.082273" lat="13.209429">
                <ele>147.699707</ele>
                <time>2012-05-26T07:35:54Z</time>
            </trkpt>
            <trkpt lon="101.082411" lat="13.209573">
                <ele>145.296387</ele>
                <time>2012-05-26T07:36:06Z</time>
            </trkpt>
            <trkpt lon="101.083269" lat="13.209627">
                <ele>140.970459</ele>
                <time>2012-05-26T07:37:28Z</time>
            </trkpt>
            <trkpt lon="101.083590" lat="13.210166">
                <ele>144.815796</ele>
                <time>2012-05-26T07:37:57Z</time>
            </trkpt>
            <trkpt lon="101.083569" lat="13.210670">
                <ele>156.832153</ele>
                <time>2012-05-26T07:38:55Z</time>
            </trkpt>
            <trkpt lon="101.083434" lat="13.211299">
                <ele>162.119507</ele>
                <time>2012-05-26T07:40:03Z</time>
            </trkpt>
            <trkpt lon="101.083428" lat="13.211360">
                <ele>158.754761</ele>
                <time>2012-05-26T07:41:14Z</time>
            </trkpt>
            <trkpt lon="101.083773" lat="13.212176">
                <ele>157.312866</ele>
                <time>2012-05-26T07:41:59Z</time>
            </trkpt>
            <trkpt lon="101.084092" lat="13.212269">
                <ele>155.390259</ele>
                <time>2012-05-26T07:42:16Z</time>
            </trkpt>
            <trkpt lon="101.084532" lat="13.212174">
                <ele>152.506348</ele>
                <time>2012-05-26T07:42:37Z</time>
            </trkpt>
            <trkpt lon="101.084836" lat="13.212294">
                <ele>152.025757</ele>
                <time>2012-05-26T07:42:49Z</time>
            </trkpt>
            <trkpt lon="101.085023" lat="13.212574">
                <ele>150.103027</ele>
                <time>2012-05-26T07:43:03Z</time>
            </trkpt>
            <trkpt lon="101.084726" lat="13.212835">
                <ele>155.870972</ele>
                <time>2012-05-26T07:43:54Z</time>
            </trkpt>
            <trkpt lon="101.084903" lat="13.213518">
                <ele>152.506348</ele>
                <time>2012-05-26T07:44:17Z</time>
            </trkpt>
            <trkpt lon="101.085129" lat="13.213784">
                <ele>154.428955</ele>
                <time>2012-05-26T07:44:33Z</time>
            </trkpt>
            <trkpt lon="101.085293" lat="13.214101">
                <ele>150.583618</ele>
                <time>2012-05-26T07:44:51Z</time>
            </trkpt>
            <trkpt lon="101.085180" lat="13.214423">
                <ele>155.870972</ele>
                <time>2012-05-26T07:45:21Z</time>
            </trkpt>
            <trkpt lon="101.085039" lat="13.214434">
                <ele>158.754761</ele>
                <time>2012-05-26T07:45:33Z</time>
            </trkpt>
            <trkpt lon="101.084892" lat="13.214704">
                <ele>159.235474</ele>
                <time>2012-05-26T07:46:11Z</time>
            </trkpt>
            <trkpt lon="101.085039" lat="13.216280">
                <ele>158.274170</ele>
                <time>2012-05-26T07:48:06Z</time>
            </trkpt>
            <trkpt lon="101.086189" lat="13.216762">
                <ele>157.793579</ele>
                <time>2012-05-26T07:49:33Z</time>
            </trkpt>
            <trkpt lon="101.087063" lat="13.216604">
                <ele>147.699707</ele>
                <time>2012-05-26T07:50:11Z</time>
            </trkpt>
            <trkpt lon="101.087214" lat="13.216603">
                <ele>141.931763</ele>
                <time>2012-05-26T07:50:32Z</time>
            </trkpt>
            <trkpt lon="101.087529" lat="13.216774">
                <ele>136.644653</ele>
                <time>2012-05-26T07:50:45Z</time>
            </trkpt>
            <trkpt lon="101.087917" lat="13.217220">
                <ele>130.395996</ele>
                <time>2012-05-26T07:51:20Z</time>
            </trkpt>
            <trkpt lon="101.087772" lat="13.217714">
                <ele>130.395996</ele>
                <time>2012-05-26T07:51:44Z</time>
            </trkpt>
            <trkpt lon="101.087289" lat="13.218150">
                <ele>137.605835</ele>
                <time>2012-05-26T07:53:15Z</time>
            </trkpt>
            <trkpt lon="101.086455" lat="13.219337">
                <ele>140.489868</ele>
                <time>2012-05-26T07:54:45Z</time>
            </trkpt>
            <trkpt lon="101.086190" lat="13.219206">
                <ele>147.699707</ele>
                <time>2012-05-26T07:55:25Z</time>
            </trkpt>
            <trkpt lon="101.085882" lat="13.218939">
                <ele>151.064209</ele>
                <time>2012-05-26T07:56:06Z</time>
            </trkpt>
            <trkpt lon="101.085638" lat="13.218965">
                <ele>149.141602</ele>
                <time>2012-05-26T07:56:40Z</time>
            </trkpt>
            <trkpt lon="101.085575" lat="13.218998">
                <ele>146.257812</ele>
                <time>2012-05-26T07:56:46Z</time>
            </trkpt>
            <trkpt lon="101.085378" lat="13.219371">
                <ele>150.103027</ele>
                <time>2012-05-26T07:57:15Z</time>
            </trkpt>
            <trkpt lon="101.085330" lat="13.219777">
                <ele>146.257812</ele>
                <time>2012-05-26T07:57:56Z</time>
            </trkpt>
            <trkpt lon="101.085351" lat="13.219941">
                <ele>149.141602</ele>
                <time>2012-05-26T07:58:16Z</time>
            </trkpt>
            <trkpt lon="101.085453" lat="13.220345">
                <ele>147.699707</ele>
                <time>2012-05-26T07:58:45Z</time>
            </trkpt>
            <trkpt lon="101.085933" lat="13.221339">
                <ele>149.622314</ele>
                <time>2012-05-26T07:59:17Z</time>
            </trkpt>
            <trkpt lon="101.086395" lat="13.222476">
                <ele>143.373657</ele>
                <time>2012-05-26T08:01:36Z</time>
            </trkpt>
            <trkpt lon="101.087059" lat="13.222863">
                <ele>135.683106</ele>
                <time>2012-05-26T08:02:14Z</time>
            </trkpt>
            <trkpt lon="101.087609" lat="13.223779">
                <ele>135.683106</ele>
                <time>2012-05-26T08:02:53Z</time>
            </trkpt>
            <trkpt lon="101.087611" lat="13.224035">
                <ele>138.567261</ele>
                <time>2012-05-26T08:03:05Z</time>
            </trkpt>
            <trkpt lon="101.087633" lat="13.224374">
                <ele>137.605835</ele>
                <time>2012-05-26T08:03:16Z</time>
            </trkpt>
            <trkpt lon="101.088269" lat="13.225719">
                <ele>140.970459</ele>
                <time>2012-05-26T08:04:07Z</time>
            </trkpt>
            <trkpt lon="101.088795" lat="13.225529">
                <ele>133.760498</ele>
                <time>2012-05-26T08:04:34Z</time>
            </trkpt>
            <trkpt lon="101.089458" lat="13.226078">
                <ele>138.086548</ele>
                <time>2012-05-26T08:06:15Z</time>
            </trkpt>
            <trkpt lon="101.089686" lat="13.226021">
                <ele>143.373657</ele>
                <time>2012-05-26T08:06:30Z</time>
            </trkpt>
            <trkpt lon="101.091564" lat="13.225493">
                <ele>139.528442</ele>
                <time>2012-05-26T08:07:30Z</time>
            </trkpt>
            <trkpt lon="101.091930" lat="13.225427">
                <ele>132.799316</ele>
                <time>2012-05-26T08:07:45Z</time>
            </trkpt>
            <trkpt lon="101.092356" lat="13.225533">
                <ele>126.550659</ele>
                <time>2012-05-26T08:08:22Z</time>
            </trkpt>
            <trkpt lon="101.092656" lat="13.225972">
                <ele>126.069946</ele>
                <time>2012-05-26T08:09:13Z</time>
            </trkpt>
            <trkpt lon="101.093188" lat="13.225382">
                <ele>124.147339</ele>
                <time>2012-05-26T08:10:14Z</time>
            </trkpt>
            <trkpt lon="101.093628" lat="13.225136">
                <ele>123.666748</ele>
                <time>2012-05-26T08:10:32Z</time>
            </trkpt>
            <trkpt lon="101.094191" lat="13.225059">
                <ele>121.263550</ele>
                <time>2012-05-26T08:10:55Z</time>
            </trkpt>
            <trkpt lon="101.094472" lat="13.225408">
                <ele>119.821411</ele>
                <time>2012-05-26T08:11:11Z</time>
            </trkpt>
            <trkpt lon="101.094661" lat="13.225995">
                <ele>123.666748</ele>
                <time>2012-05-26T08:11:47Z</time>
            </trkpt>
            <trkpt lon="101.094682" lat="13.226661">
                <ele>122.705444</ele>
                <time>2012-05-26T08:12:17Z</time>
            </trkpt>
            <trkpt lon="101.095337" lat="13.227159">
                <ele>121.744141</ele>
                <time>2012-05-26T08:12:49Z</time>
            </trkpt>
            <trkpt lon="101.095708" lat="13.227451">
                <ele>118.379395</ele>
                <time>2012-05-26T08:13:04Z</time>
            </trkpt>
            <trkpt lon="101.095855" lat="13.227827">
                <ele>120.782837</ele>
                <time>2012-05-26T08:13:20Z</time>
            </trkpt>
            <trkpt lon="101.096177" lat="13.227975">
                <ele>119.340820</ele>
                <time>2012-05-26T08:13:37Z</time>
            </trkpt>
            <trkpt lon="101.096722" lat="13.227770">
                <ele>116.937500</ele>
                <time>2012-05-26T08:14:11Z</time>
            </trkpt>
            <trkpt lon="101.097598" lat="13.228053">
                <ele>115.014893</ele>
                <time>2012-05-26T08:14:42Z</time>
            </trkpt>
            <trkpt lon="101.098538" lat="13.229303">
                <ele>113.092285</ele>
                <time>2012-05-26T08:15:37Z</time>
            </trkpt>
            <trkpt lon="101.098956" lat="13.230452">
                <ele>111.169556</ele>
                <time>2012-05-26T08:16:10Z</time>
            </trkpt>
            <trkpt lon="101.099026" lat="13.230511">
                <ele>110.688843</ele>
                <time>2012-05-26T08:16:12Z</time>
            </trkpt>
            <trkpt lon="101.100858" lat="13.231132">
                <ele>105.882446</ele>
                <time>2012-05-26T08:17:12Z</time>
            </trkpt>
            <trkpt lon="101.101398" lat="13.231213">
                <ele>103.479004</ele>
                <time>2012-05-26T08:17:25Z</time>
            </trkpt>
            <trkpt lon="101.103302" lat="13.232079">
                <ele>98.191895</ele>
                <time>2012-05-26T08:18:09Z</time>
            </trkpt>
            <trkpt lon="101.104950" lat="13.232017">
                <ele>97.711182</ele>
                <time>2012-05-26T08:18:46Z</time>
            </trkpt>
            <trkpt lon="101.105087" lat="13.232782">
                <ele>97.711182</ele>
                <time>2012-05-26T08:19:04Z</time>
            </trkpt>
            <trkpt lon="101.105267" lat="13.232936">
                <ele>99.633789</ele>
                <time>2012-05-26T08:19:10Z</time>
            </trkpt>
            <trkpt lon="101.107416" lat="13.233051">
                <ele>96.749878</ele>
                <time>2012-05-26T08:19:53Z</time>
            </trkpt>
            <trkpt lon="101.109510" lat="13.232781">
                <ele>93.385132</ele>
                <time>2012-05-26T08:20:30Z</time>
            </trkpt>
            <trkpt lon="101.111923" lat="13.231698">
                <ele>88.578735</ele>
                <time>2012-05-26T08:21:11Z</time>
            </trkpt>
            <trkpt lon="101.113822" lat="13.231129">
                <ele>90.020630</ele>
                <time>2012-05-26T08:21:45Z</time>
            </trkpt>
            <trkpt lon="101.115724" lat="13.232550">
                <ele>94.346558</ele>
                <time>2012-05-26T08:30:54Z</time>
            </trkpt>
            <trkpt lon="101.116018" lat="13.232280">
                <ele>97.230000</ele>
                <time>2012-05-26T08:30:35Z</time>
            </trkpt>
            <trkpt lon="101.116119" lat="13.230710">
                <ele>96.270000</ele>
                <time>2012-05-26T08:31:06Z</time>
            </trkpt>
            <trkpt lon="101.117100" lat="13.229168">
                <ele>95.790000</ele>
                <time>2012-05-26T08:31:34Z</time>
            </trkpt>
            <trkpt lon="101.117347" lat="13.229019">
                <ele>95.790000</ele>
                <time>2012-05-26T08:31:40Z</time>
            </trkpt>
            <trkpt lon="101.117859" lat="13.228990">
                <ele>97.230000</ele>
                <time>2012-05-26T08:31:52Z</time>
            </trkpt>
            <trkpt lon="101.117862" lat="13.229038">
                <ele>96.270000</ele>
                <time>2012-05-26T08:32:00Z</time>
            </trkpt>
            <trkpt lon="101.117246" lat="13.229028">
                <ele>95.310000</ele>
                <time>2012-05-26T08:32:15Z</time>
            </trkpt>
            <trkpt lon="101.116887" lat="13.228486">
                <ele>97.230000</ele>
                <time>2012-05-26T08:32:31Z</time>
            </trkpt>
            <trkpt lon="101.116818" lat="13.227687">
                <ele>99.630000</ele>
                <time>2012-05-26T08:32:50Z</time>
            </trkpt>
            <trkpt lon="101.116196" lat="13.225983">
                <ele>101.560000</ele>
                <time>2012-05-26T08:33:32Z</time>
            </trkpt>
            <trkpt lon="101.116279" lat="13.225554">
                <ele>101.080000</ele>
                <time>2012-05-26T08:33:43Z</time>
            </trkpt>
            <trkpt lon="101.116760" lat="13.225195">
                <ele>101.560000</ele>
                <time>2012-05-26T08:33:55Z</time>
            </trkpt>
            <trkpt lon="101.116958" lat="13.224885">
                <ele>101.080000</ele>
                <time>2012-05-26T08:34:02Z</time>
            </trkpt>
            <trkpt lon="101.116949" lat="13.223460">
                <ele>102.520000</ele>
                <time>2012-05-26T08:34:26Z</time>
            </trkpt>
            <trkpt lon="101.116698" lat="13.222826">
                <ele>103.960000</ele>
                <time>2012-05-26T08:34:39Z</time>
            </trkpt>
            <trkpt lon="101.117054" lat="13.221624">
                <ele>105.880000</ele>
                <time>2012-05-26T08:35:04Z</time>
            </trkpt>
            <trkpt lon="101.118570" lat="13.221024">
                <ele>106.360000</ele>
                <time>2012-05-26T08:35:31Z</time>
            </trkpt>
            <trkpt lon="101.118879" lat="13.220391">
                <ele>106.840000</ele>
                <time>2012-05-26T08:35:43Z</time>
            </trkpt>
            <trkpt lon="101.118576" lat="13.218078">
                <ele>110.690000</ele>
                <time>2012-05-26T08:36:29Z</time>
            </trkpt>
            <trkpt lon="101.118143" lat="13.217358">
                <ele>110.690000</ele>
                <time>2012-05-26T08:36:47Z</time>
            </trkpt>
            <trkpt lon="101.118133" lat="13.217018">
                <ele>111.170000</ele>
                <time>2012-05-26T08:36:54Z</time>
            </trkpt>
            <trkpt lon="101.118998" lat="13.214062">
                <ele>116.460000</ele>
                <time>2012-05-26T08:38:02Z</time>
            </trkpt>
            <trkpt lon="101.119608" lat="13.213847">
                <ele>116.460000</ele>
                <time>2012-05-26T08:38:16Z</time>
            </trkpt>
            <trkpt lon="101.120070" lat="13.211824">
                <ele>119.340000</ele>
                <time>2012-05-26T08:38:55Z</time>
            </trkpt>
            <trkpt lon="101.120079" lat="13.211676">
                <ele>119.820000</ele>
                <time>2012-05-26T08:38:58Z</time>
            </trkpt>
            <trkpt lon="101.119613" lat="13.211463">
                <ele>118.860000</ele>
                <time>2012-05-26T08:39:08Z</time>
            </trkpt>
            <trkpt lon="101.119080" lat="13.211126">
                <ele>116.460000</ele>
                <time>2012-05-26T08:39:18Z</time>
            </trkpt>
            <trkpt lon="101.118794" lat="13.210735">
                <ele>115.500000</ele>
                <time>2012-05-26T08:39:26Z</time>
            </trkpt>
            <trkpt lon="101.118138" lat="13.210655">
                <ele>115.980000</ele>
                <time>2012-05-26T08:39:38Z</time>
            </trkpt>
            <trkpt lon="101.117977" lat="13.210436">
                <ele>116.940000</ele>
                <time>2012-05-26T08:39:45Z</time>
            </trkpt>
            <trkpt lon="101.118531" lat="13.208345">
                <ele>119.340000</ele>
                <time>2012-05-26T08:40:28Z</time>
            </trkpt>
            <trkpt lon="101.118261" lat="13.207503">
                <ele>122.220000</ele>
                <time>2012-05-26T08:40:51Z</time>
            </trkpt>
            <trkpt lon="101.117879" lat="13.207221">
                <ele>125.590000</ele>
                <time>2012-05-26T08:43:27Z</time>
            </trkpt>
            <trkpt lon="101.117868" lat="13.207070">
                <ele>127.510000</ele>
                <time>2012-05-26T08:49:02Z</time>
            </trkpt>
            <trkpt lon="101.117869" lat="13.207064">
                <ele>126.070000</ele>
                <time>2012-05-26T08:49:36Z</time>
            </trkpt>
            <trkpt lon="101.118126" lat="13.206482">
                <ele>129.430000</ele>
                <time>2012-05-26T08:51:15Z</time>
            </trkpt>
            <trkpt lon="101.118064" lat="13.205945">
                <ele>141.450000</ele>
                <time>2012-05-26T08:52:21Z</time>
            </trkpt>
            <trkpt lon="101.118491" lat="13.205230">
                <ele>145.300000</ele>
                <time>2012-05-26T08:53:02Z</time>
            </trkpt>
            <trkpt lon="101.118723" lat="13.204284">
                <ele>155.390000</ele>
                <time>2012-05-26T08:54:32Z</time>
            </trkpt>
            <trkpt lon="101.118723" lat="13.203492">
                <ele>156.830000</ele>
                <time>2012-05-26T08:56:06Z</time>
            </trkpt>
            <trkpt lon="101.118693" lat="13.203427">
                <ele>154.910000</ele>
                <time>2012-05-26T08:56:18Z</time>
            </trkpt>
            <trkpt lon="101.118690" lat="13.203385">
                <ele>149.140000</ele>
                <time>2012-05-26T08:56:23Z</time>
            </trkpt>
            <trkpt lon="101.118690" lat="13.203385">
                <ele>155.390000</ele>
                <time>2012-05-26T08:56:24Z</time>
            </trkpt>
            <trkpt lon="101.118725" lat="13.203325">
                <ele>152.990000</ele>
                <time>2012-05-26T08:56:35Z</time>
            </trkpt>
            <trkpt lon="101.118727" lat="13.203287">
                <ele>152.030000</ele>
                <time>2012-05-26T08:56:45Z</time>
            </trkpt>
            <trkpt lon="101.118899" lat="13.202946">
                <ele>152.510000</ele>
                <time>2012-05-26T08:57:19Z</time>
            </trkpt>
            <trkpt lon="101.119000" lat="13.202621">
                <ele>156.350000</ele>
                <time>2012-05-26T08:57:56Z</time>
            </trkpt>
            <trkpt lon="101.118768" lat="13.202094">
                <ele>163.560000</ele>
                <time>2012-05-26T08:59:02Z</time>
            </trkpt>
            <trkpt lon="101.118624" lat="13.201813">
                <ele>164.520000</ele>
                <time>2012-05-26T08:59:19Z</time>
            </trkpt>
            <trkpt lon="101.118372" lat="13.201569">
                <ele>164.520000</ele>
                <time>2012-05-26T08:59:38Z</time>
            </trkpt>
            <trkpt lon="101.117989" lat="13.201508">
                <ele>167.890000</ele>
                <time>2012-05-26T09:00:02Z</time>
            </trkpt>
            <trkpt lon="101.117881" lat="13.201276">
                <ele>169.330000</ele>
                <time>2012-05-26T09:00:18Z</time>
            </trkpt>
            <trkpt lon="101.117506" lat="13.200601">
                <ele>172.690000</ele>
                <time>2012-05-26T09:00:48Z</time>
            </trkpt>
            <trkpt lon="101.117350" lat="13.200465">
                <ele>171.730000</ele>
                <time>2012-05-26T09:00:58Z</time>
            </trkpt>
            <trkpt lon="101.115049" lat="13.199181">
                <ele>183.750000</ele>
                <time>2012-05-26T09:02:53Z</time>
            </trkpt>
            <trkpt lon="101.114740" lat="13.199154">
                <ele>186.150000</ele>
                <time>2012-05-26T09:03:10Z</time>
            </trkpt>
            <trkpt lon="101.114433" lat="13.199085">
                <ele>186.630000</ele>
                <time>2012-05-26T09:03:25Z</time>
            </trkpt>
            <trkpt lon="101.113135" lat="13.197753">
                <ele>192.880000</ele>
                <time>2012-05-26T09:05:01Z</time>
            </trkpt>
            <trkpt lon="101.112538" lat="13.197661">
                <ele>190.000000</ele>
                <time>2012-05-26T09:05:24Z</time>
            </trkpt>
            <trkpt lon="101.112193" lat="13.197781">
                <ele>186.150000</ele>
                <time>2012-05-26T09:05:34Z</time>
            </trkpt>
            <trkpt lon="101.111151" lat="13.198725">
                <ele>171.250000</ele>
                <time>2012-05-26T09:06:05Z</time>
            </trkpt>
            <trkpt lon="101.110343" lat="13.200143">
                <ele>161.640000</ele>
                <time>2012-05-26T09:06:44Z</time>
            </trkpt>
            <trkpt lon="101.109826" lat="13.202060">
                <ele>156.350000</ele>
                <time>2012-05-26T09:07:24Z</time>
            </trkpt>
            <trkpt lon="101.109514" lat="13.202254">
                <ele>155.390000</ele>
                <time>2012-05-26T09:07:32Z</time>
            </trkpt>
            <trkpt lon="101.109101" lat="13.202505">
                <ele>153.470000</ele>
                <time>2012-05-26T09:07:47Z</time>
            </trkpt>
            <trkpt lon="101.109834" lat="13.202192">
                <ele>156.830000</ele>
                <time>2012-05-26T09:08:18Z</time>
            </trkpt>
            <trkpt lon="101.110285" lat="13.203009">
                <ele>154.430000</ele>
                <time>2012-05-26T09:08:49Z</time>
            </trkpt>
            <trkpt lon="101.110217" lat="13.204050">
                <ele>149.140000</ele>
                <time>2012-05-26T09:09:10Z</time>
            </trkpt>
            <trkpt lon="101.110519" lat="13.204433">
                <ele>152.030000</ele>
                <time>2012-05-26T09:09:52Z</time>
            </trkpt>
            <trkpt lon="101.110683" lat="13.205047">
                <ele>153.470000</ele>
                <time>2012-05-26T09:10:23Z</time>
            </trkpt>
            <trkpt lon="101.111239" lat="13.205647">
                <ele>159.240000</ele>
                <time>2012-05-26T09:10:59Z</time>
            </trkpt>
            <trkpt lon="101.111250" lat="13.205690">
                <ele>159.240000</ele>
                <time>2012-05-26T09:11:54Z</time>
            </trkpt>
            <trkpt lon="101.111721" lat="13.206348">
                <ele>151.540000</ele>
                <time>2012-05-26T09:12:20Z</time>
            </trkpt>
            <trkpt lon="101.111823" lat="13.206917">
                <ele>147.220000</ele>
                <time>2012-05-26T09:12:32Z</time>
            </trkpt>
            <trkpt lon="101.112585" lat="13.207548">
                <ele>143.370000</ele>
                <time>2012-05-26T09:12:55Z</time>
            </trkpt>
            <trkpt lon="101.113082" lat="13.208156">
                <ele>136.640000</ele>
                <time>2012-05-26T09:13:15Z</time>
            </trkpt>
            <trkpt lon="101.113495" lat="13.208268">
                <ele>135.200000</ele>
                <time>2012-05-26T09:13:25Z</time>
            </trkpt>
            <trkpt lon="101.113539" lat="13.208913">
                <ele>131.840000</ele>
                <time>2012-05-26T09:13:37Z</time>
            </trkpt>
            <trkpt lon="101.113723" lat="13.209152">
                <ele>130.880000</ele>
                <time>2012-05-26T09:13:44Z</time>
            </trkpt>
            <trkpt lon="101.114116" lat="13.209311">
                <ele>129.920000</ele>
                <time>2012-05-26T09:13:51Z</time>
            </trkpt>
            <trkpt lon="101.114371" lat="13.209617">
                <ele>129.430000</ele>
                <time>2012-05-26T09:13:58Z</time>
            </trkpt>
            <trkpt lon="101.114346" lat="13.210092">
                <ele>127.030000</ele>
                <time>2012-05-26T09:14:08Z</time>
            </trkpt>
            <trkpt lon="101.114541" lat="13.210468">
                <ele>126.550000</ele>
                <time>2012-05-26T09:14:16Z</time>
            </trkpt>
            <trkpt lon="101.114407" lat="13.211058">
                <ele>124.630000</ele>
                <time>2012-05-26T09:14:27Z</time>
            </trkpt>
            <trkpt lon="101.114387" lat="13.211163">
                <ele>124.150000</ele>
                <time>2012-05-26T09:14:29Z</time>
            </trkpt>
            <trkpt lon="101.114555" lat="13.211484">
                <ele>123.190000</ele>
                <time>2012-05-26T09:14:37Z</time>
            </trkpt>
            <trkpt lon="101.114798" lat="13.211591">
                <ele>123.670000</ele>
                <time>2012-05-26T09:14:45Z</time>
            </trkpt>
            <trkpt lon="101.114650" lat="13.211721">
                <ele>121.740000</ele>
                <time>2012-05-26T09:14:53Z</time>
            </trkpt>
            <trkpt lon="101.114645" lat="13.211999">
                <ele>121.260000</ele>
                <time>2012-05-26T09:14:58Z</time>
            </trkpt>
            <trkpt lon="101.114409" lat="13.212224">
                <ele>120.300000</ele>
                <time>2012-05-26T09:15:05Z</time>
            </trkpt>
            <trkpt lon="101.114165" lat="13.212252">
                <ele>120.300000</ele>
                <time>2012-05-26T09:15:10Z</time>
            </trkpt>
            <trkpt lon="101.113889" lat="13.212484">
                <ele>121.260000</ele>
                <time>2012-05-26T09:15:18Z</time>
            </trkpt>
            <trkpt lon="101.113335" lat="13.212924">
                <ele>121.740000</ele>
                <time>2012-05-26T09:15:30Z</time>
            </trkpt>
            <trkpt lon="101.113016" lat="13.213036">
                <ele>121.740000</ele>
                <time>2012-05-26T09:15:36Z</time>
            </trkpt>
            <trkpt lon="101.112856" lat="13.213359">
                <ele>120.300000</ele>
                <time>2012-05-26T09:15:47Z</time>
            </trkpt>
            <trkpt lon="101.113179" lat="13.214817">
                <ele>116.940000</ele>
                <time>2012-05-26T09:16:16Z</time>
            </trkpt>
            <trkpt lon="101.112834" lat="13.215111">
                <ele>118.380000</ele>
                <time>2012-05-26T09:16:27Z</time>
            </trkpt>
            <trkpt lon="101.111933" lat="13.216468">
                <ele>116.460000</ele>
                <time>2012-05-26T09:16:52Z</time>
            </trkpt>
            <trkpt lon="101.111972" lat="13.217615">
                <ele>114.050000</ele>
                <time>2012-05-26T09:17:09Z</time>
            </trkpt>
            <trkpt lon="101.111055" lat="13.218923">
                <ele>113.090000</ele>
                <time>2012-05-26T09:17:32Z</time>
            </trkpt>
            <trkpt lon="101.110446" lat="13.219349">
                <ele>112.610000</ele>
                <time>2012-05-26T09:17:43Z</time>
            </trkpt>
            <trkpt lon="101.110024" lat="13.219625">
                <ele>111.650000</ele>
                <time>2012-05-26T09:17:52Z</time>
            </trkpt>
            <trkpt lon="101.110565" lat="13.219276">
                <ele>112.130000</ele>
                <time>2012-05-26T09:18:10Z</time>
            </trkpt>
            <trkpt lon="101.110684" lat="13.218960">
                <ele>111.650000</ele>
                <time>2012-05-26T09:18:18Z</time>
            </trkpt>
            <trkpt lon="101.110053" lat="13.218177">
                <ele>113.570000</ele>
                <time>2012-05-26T09:18:36Z</time>
            </trkpt>
            <trkpt lon="101.109518" lat="13.217491">
                <ele>114.530000</ele>
                <time>2012-05-26T09:18:52Z</time>
            </trkpt>
            <trkpt lon="101.107753" lat="13.215436">
                <ele>116.460000</ele>
                <time>2012-05-26T09:19:46Z</time>
            </trkpt>
            <trkpt lon="101.107576" lat="13.215260">
                <ele>116.460000</ele>
                <time>2012-05-26T09:19:52Z</time>
            </trkpt>
            <trkpt lon="101.106885" lat="13.215412">
                <ele>115.500000</ele>
                <time>2012-05-26T09:20:08Z</time>
            </trkpt>
            <trkpt lon="101.106573" lat="13.215853">
                <ele>115.500000</ele>
                <time>2012-05-26T09:20:21Z</time>
            </trkpt>
            <trkpt lon="101.106276" lat="13.216223">
                <ele>114.530000</ele>
                <time>2012-05-26T09:20:30Z</time>
            </trkpt>
            <trkpt lon="101.105933" lat="13.216434">
                <ele>114.530000</ele>
                <time>2012-05-26T09:20:41Z</time>
            </trkpt>
            <trkpt lon="101.105563" lat="13.216048">
                <ele>113.570000</ele>
                <time>2012-05-26T09:20:56Z</time>
            </trkpt>
            <trkpt lon="101.104405" lat="13.214176">
                <ele>114.050000</ele>
                <time>2012-05-26T09:21:44Z</time>
            </trkpt>
            <trkpt lon="101.103945" lat="13.214356">
                <ele>115.010000</ele>
                <time>2012-05-26T09:21:58Z</time>
            </trkpt>
            <trkpt lon="101.103735" lat="13.214088">
                <ele>115.980000</ele>
                <time>2012-05-26T09:22:12Z</time>
            </trkpt>
            <trkpt lon="101.102648" lat="13.212248">
                <ele>117.900000</ele>
                <time>2012-05-26T09:23:03Z</time>
            </trkpt>
            <trkpt lon="101.101859" lat="13.211699">
                <ele>119.340000</ele>
                <time>2012-05-26T09:23:23Z</time>
            </trkpt>
            <trkpt lon="101.100081" lat="13.210411">
                <ele>119.340000</ele>
                <time>2012-05-26T09:24:06Z</time>
            </trkpt>
            <trkpt lon="101.099963" lat="13.210143">
                <ele>119.340000</ele>
                <time>2012-05-26T09:24:14Z</time>
            </trkpt>
            <trkpt lon="101.101016" lat="13.207494">
                <ele>127.990000</ele>
                <time>2012-05-26T09:27:38Z</time>
            </trkpt>
            <trkpt lon="101.101226" lat="13.206934">
                <ele>128.470000</ele>
                <time>2012-05-26T09:27:53Z</time>
            </trkpt>
            <trkpt lon="101.101518" lat="13.206292">
                <ele>125.590000</ele>
                <time>2012-05-26T09:28:13Z</time>
            </trkpt>
            <trkpt lon="101.101623" lat="13.204867">
                <ele>135.680000</ele>
                <time>2012-05-26T09:29:37Z</time>
            </trkpt>
            <trkpt lon="101.101506" lat="13.204655">
                <ele>137.130000</ele>
                <time>2012-05-26T09:29:56Z</time>
            </trkpt>
            <trkpt lon="101.100881" lat="13.204729">
                <ele>133.760000</ele>
                <time>2012-05-26T09:30:13Z</time>
            </trkpt>
            <trkpt lon="101.100382" lat="13.204517">
                <ele>131.360000</ele>
                <time>2012-05-26T09:30:29Z</time>
            </trkpt>
            <trkpt lon="101.100439" lat="13.204050">
                <ele>135.200000</ele>
                <time>2012-05-26T09:30:52Z</time>
            </trkpt>
            <trkpt lon="101.099522" lat="13.203210">
                <ele>139.050000</ele>
                <time>2012-05-26T09:31:34Z</time>
            </trkpt>
            <trkpt lon="101.099033" lat="13.202851">
                <ele>136.640000</ele>
                <time>2012-05-26T09:31:48Z</time>
            </trkpt>
            <trkpt lon="101.098046" lat="13.200798">
                <ele>134.240000</ele>
                <time>2012-05-26T09:32:36Z</time>
            </trkpt>
            <trkpt lon="101.097945" lat="13.200734">
                <ele>133.760000</ele>
                <time>2012-05-26T09:32:40Z</time>
            </trkpt>
            <trkpt lon="101.097765" lat="13.199851">
                <ele>135.680000</ele>
                <time>2012-05-26T09:33:12Z</time>
            </trkpt>
            <trkpt lon="101.098081" lat="13.198915">
                <ele>148.180000</ele>
                <time>2012-05-26T09:34:23Z</time>
            </trkpt>
            <trkpt lon="101.100675" lat="13.197861">
                <ele>161.640000</ele>
                <time>2012-05-26T09:36:54Z</time>
            </trkpt>
            <trkpt lon="101.100562" lat="13.197401">
                <ele>165.480000</ele>
                <time>2012-05-26T09:37:30Z</time>
            </trkpt>
            <trkpt lon="101.100098" lat="13.196771">
                <ele>156.830000</ele>
                <time>2012-05-26T09:39:40Z</time>
            </trkpt>
            <trkpt lon="101.099185" lat="13.196637">
                <ele>148.660000</ele>
                <time>2012-05-26T09:40:10Z</time>
            </trkpt>
            <trkpt lon="101.099145" lat="13.196366">
                <ele>148.660000</ele>
                <time>2012-05-26T09:40:58Z</time>
            </trkpt>
            <trkpt lon="101.099300" lat="13.196319">
                <ele>150.100000</ele>
                <time>2012-05-26T09:41:21Z</time>
            </trkpt>
            <trkpt lon="101.099391" lat="13.196179">
                <ele>146.740000</ele>
                <time>2012-05-26T09:43:00Z</time>
            </trkpt>
            <trkpt lon="101.099315" lat="13.195593">
                <ele>149.140000</ele>
                <time>2012-05-26T09:44:05Z</time>
            </trkpt>
            <trkpt lon="101.098725" lat="13.193952">
                <ele>154.910000</ele>
                <time>2012-05-26T09:46:00Z</time>
            </trkpt>
            <trkpt lon="101.098453" lat="13.193964">
                <ele>154.430000</ele>
                <time>2012-05-26T09:46:21Z</time>
            </trkpt>
            <trkpt lon="101.098145" lat="13.193877">
                <ele>148.180000</ele>
                <time>2012-05-26T09:46:33Z</time>
            </trkpt>
            <trkpt lon="101.097642" lat="13.193511">
                <ele>149.140000</ele>
                <time>2012-05-26T09:47:12Z</time>
            </trkpt>
            <trkpt lon="101.096996" lat="13.193611">
                <ele>150.580000</ele>
                <time>2012-05-26T09:47:45Z</time>
            </trkpt>
            <trkpt lon="101.096839" lat="13.193968">
                <ele>150.100000</ele>
                <time>2012-05-26T09:47:57Z</time>
            </trkpt>
            <trkpt lon="101.096875" lat="13.194638">
                <ele>145.300000</ele>
                <time>2012-05-26T09:48:10Z</time>
            </trkpt>
            <trkpt lon="101.096499" lat="13.195369">
                <ele>142.410000</ele>
                <time>2012-05-26T09:48:49Z</time>
            </trkpt>
            <trkpt lon="101.096538" lat="13.196019">
                <ele>140.010000</ele>
                <time>2012-05-26T09:49:31Z</time>
            </trkpt>
            <trkpt lon="101.096401" lat="13.196525">
                <ele>140.010000</ele>
                <time>2012-05-26T09:49:54Z</time>
            </trkpt>
            <trkpt lon="101.096109" lat="13.197354">
                <ele>136.640000</ele>
                <time>2012-05-26T09:50:12Z</time>
            </trkpt>
            <trkpt lon="101.094686" lat="13.198458">
                <ele>130.400000</ele>
                <time>2012-05-26T09:50:52Z</time>
            </trkpt>
            <trkpt lon="101.093543" lat="13.199570">
                <ele>124.630000</ele>
                <time>2012-05-26T09:51:23Z</time>
            </trkpt>
            <trkpt lon="101.092363" lat="13.199948">
                <ele>122.220000</ele>
                <time>2012-05-26T09:51:46Z</time>
            </trkpt>
            <trkpt lon="101.092187" lat="13.200170">
                <ele>121.740000</ele>
                <time>2012-05-26T09:51:53Z</time>
            </trkpt>
            <trkpt lon="101.092115" lat="13.201338">
                <ele>119.820000</ele>
                <time>2012-05-26T09:52:15Z</time>
            </trkpt>
            <trkpt lon="101.092010" lat="13.201503">
                <ele>119.820000</ele>
                <time>2012-05-26T09:52:19Z</time>
            </trkpt>
            <trkpt lon="101.091409" lat="13.201794">
                <ele>124.150000</ele>
                <time>2012-05-26T09:52:39Z</time>
            </trkpt>
            <trkpt lon="101.090401" lat="13.197995">
                <ele>128.950000</ele>
                <time>2012-05-26T09:54:04Z</time>
            </trkpt>
            <trkpt lon="101.089873" lat="13.196651">
                <ele>131.840000</ele>
                <time>2012-05-26T09:54:33Z</time>
            </trkpt>
            <trkpt lon="101.089118" lat="13.195576">
                <ele>133.280000</ele>
                <time>2012-05-26T09:54:58Z</time>
            </trkpt>
            <trkpt lon="101.087340" lat="13.193829">
                <ele>136.160000</ele>
                <time>2012-05-26T09:55:46Z</time>
            </trkpt>
            <trkpt lon="101.085785" lat="13.192659">
                <ele>140.970000</ele>
                <time>2012-05-26T09:56:28Z</time>
            </trkpt>
            <trkpt lon="101.082786" lat="13.190617">
                <ele>147.220000</ele>
                <time>2012-05-26T09:57:52Z</time>
            </trkpt>
            <trkpt lon="101.082131" lat="13.190034">
                <ele>148.180000</ele>
                <time>2012-05-26T09:58:13Z</time>
            </trkpt>
            <trkpt lon="101.080843" lat="13.189096">
                <ele>143.370000</ele>
                <time>2012-05-26T09:58:47Z</time>
            </trkpt>
            <trkpt lon="101.079244" lat="13.188449">
                <ele>143.370000</ele>
                <time>2012-05-26T10:11:22Z</time>
            </trkpt>
            <trkpt lon="101.076644" lat="13.187970">
                <ele>141.450000</ele>
                <time>2012-05-26T10:12:21Z</time>
            </trkpt>
            <trkpt lon="101.076273" lat="13.187835">
                <ele>139.530000</ele>
                <time>2012-05-26T10:12:35Z</time>
            </trkpt>
            <trkpt lon="101.074621" lat="13.188156">
                <ele>136.640000</ele>
                <time>2012-05-26T10:13:06Z</time>
            </trkpt>
            <trkpt lon="101.074301" lat="13.188335">
                <ele>137.130000</ele>
                <time>2012-05-26T10:13:13Z</time>
            </trkpt>
            <trkpt lon="101.074150" lat="13.188812">
                <ele>139.050000</ele>
                <time>2012-05-26T10:13:24Z</time>
            </trkpt>
            <trkpt lon="101.074072" lat="13.189563">
                <ele>140.970000</ele>
                <time>2012-05-26T10:13:43Z</time>
            </trkpt>
            <trkpt lon="101.072873" lat="13.190354">
                <ele>139.050000</ele>
                <time>2012-05-26T10:14:18Z</time>
            </trkpt>
            <trkpt lon="101.072106" lat="13.190679">
                <ele>133.280000</ele>
                <time>2012-05-26T10:14:40Z</time>
            </trkpt>
            <trkpt lon="101.071407" lat="13.191202">
                <ele>128.950000</ele>
                <time>2012-05-26T10:15:08Z</time>
            </trkpt>
            <trkpt lon="101.071252" lat="13.191233">
                <ele>131.840000</ele>
                <time>2012-05-26T10:15:48Z</time>
            </trkpt>
            <trkpt lon="101.070739" lat="13.191402">
                <ele>135.200000</ele>
                <time>2012-05-26T10:16:29Z</time>
            </trkpt>
            <trkpt lon="101.070323" lat="13.191946">
                <ele>138.090000</ele>
                <time>2012-05-26T10:17:01Z</time>
            </trkpt>
            <trkpt lon="101.069110" lat="13.192295">
                <ele>133.760000</ele>
                <time>2012-05-26T10:17:37Z</time>
            </trkpt>
            <trkpt lon="101.068503" lat="13.192160">
                <ele>135.200000</ele>
                <time>2012-05-26T10:17:58Z</time>
            </trkpt>
            <trkpt lon="101.067669" lat="13.192050">
                <ele>131.360000</ele>
                <time>2012-05-26T10:18:17Z</time>
            </trkpt>
            <trkpt lon="101.066523" lat="13.192222">
                <ele>127.510000</ele>
                <time>2012-05-26T10:18:38Z</time>
            </trkpt>
            <trkpt lon="101.065520" lat="13.193489">
                <ele>131.840000</ele>
                <time>2012-05-26T10:19:23Z</time>
            </trkpt>
            <trkpt lon="101.065293" lat="13.193937">
                <ele>131.360000</ele>
                <time>2012-05-26T10:19:37Z</time>
            </trkpt>
            <trkpt lon="101.064756" lat="13.194118">
                <ele>128.950000</ele>
                <time>2012-05-26T10:19:50Z</time>
            </trkpt>
            <trkpt lon="101.063846" lat="13.193988">
                <ele>124.630000</ele>
                <time>2012-05-26T10:27:29Z</time>
            </trkpt>
            <trkpt lon="101.062709" lat="13.193993">
                <ele>113.090000</ele>
                <time>2012-05-26T10:28:02Z</time>
            </trkpt>
            <trkpt lon="101.060677" lat="13.193504">
                <ele>110.210000</ele>
                <time>2012-05-26T10:28:36Z</time>
            </trkpt>
            <trkpt lon="101.059316" lat="13.193243">
                <ele>103.960000</ele>
                <time>2012-05-26T10:28:57Z</time>
            </trkpt>
            <trkpt lon="101.057033" lat="13.192963">
                <ele>101.560000</ele>
                <time>2012-05-26T10:29:41Z</time>
            </trkpt>
            <trkpt lon="101.055035" lat="13.192994">
                <ele>103.480000</ele>
                <time>2012-05-26T10:30:28Z</time>
            </trkpt>
            <trkpt lon="101.054718" lat="13.193104">
                <ele>102.520000</ele>
                <time>2012-05-26T10:30:33Z</time>
            </trkpt>
            <trkpt lon="101.054315" lat="13.193498">
                <ele>102.520000</ele>
                <time>2012-05-26T10:30:42Z</time>
            </trkpt>
            <trkpt lon="101.053776" lat="13.193483">
                <ele>97.230000</ele>
                <time>2012-05-26T10:30:54Z</time>
            </trkpt>
            <trkpt lon="101.053089" lat="13.192131">
                <ele>101.080000</ele>
                <time>2012-05-26T10:31:40Z</time>
            </trkpt>
            <trkpt lon="101.051701" lat="13.191952">
                <ele>103.000000</ele>
                <time>2012-05-26T10:32:21Z</time>
            </trkpt>
            <trkpt lon="101.050296" lat="13.191600">
                <ele>99.150000</ele>
                <time>2012-05-26T10:32:52Z</time>
            </trkpt>
            <trkpt lon="101.048889" lat="13.191559">
                <ele>98.190000</ele>
                <time>2012-05-26T10:33:14Z</time>
            </trkpt>
            <trkpt lon="101.048558" lat="13.191429">
                <ele>98.670000</ele>
                <time>2012-05-26T10:33:20Z</time>
            </trkpt>
            <trkpt lon="101.048035" lat="13.190609">
                <ele>97.230000</ele>
                <time>2012-05-26T10:33:37Z</time>
            </trkpt>
            <trkpt lon="101.047842" lat="13.190509">
                <ele>96.750000</ele>
                <time>2012-05-26T10:33:41Z</time>
            </trkpt>
            <trkpt lon="101.047532" lat="13.190587">
                <ele>97.230000</ele>
                <time>2012-05-26T10:33:47Z</time>
            </trkpt>
            <trkpt lon="101.045908" lat="13.191844">
                <ele>95.790000</ele>
                <time>2012-05-26T10:34:17Z</time>
            </trkpt>
            <trkpt lon="101.045741" lat="13.191999">
                <ele>94.830000</ele>
                <time>2012-05-26T10:34:20Z</time>
            </trkpt>
            <trkpt lon="101.045298" lat="13.193386">
                <ele>92.420000</ele>
                <time>2012-05-26T10:34:39Z</time>
            </trkpt>
            <trkpt lon="101.044572" lat="13.194589">
                <ele>91.460000</ele>
                <time>2012-05-26T10:34:59Z</time>
            </trkpt>
            <trkpt lon="101.044101" lat="13.195837">
                <ele>90.500000</ele>
                <time>2012-05-26T10:35:17Z</time>
            </trkpt>
            <trkpt lon="101.042918" lat="13.199089">
                <ele>84.730000</ele>
                <time>2012-05-26T10:35:59Z</time>
            </trkpt>
            <trkpt lon="101.042857" lat="13.201362">
                <ele>79.930000</ele>
                <time>2012-05-26T10:42:33Z</time>
            </trkpt>
            <trkpt lon="101.043145" lat="13.201685">
                <ele>80.410000</ele>
                <time>2012-05-26T10:42:45Z</time>
            </trkpt>
            <trkpt lon="101.043292" lat="13.202461">
                <ele>82.330000</ele>
                <time>2012-05-26T10:43:21Z</time>
            </trkpt>
            <trkpt lon="101.043641" lat="13.204531">
                <ele>85.210000</ele>
                <time>2012-05-26T10:44:15Z</time>
            </trkpt>
            <trkpt lon="101.043576" lat="13.204696">
                <ele>85.210000</ele>
                <time>2012-05-26T10:44:19Z</time>
            </trkpt>
            <trkpt lon="101.043360" lat="13.204873">
                <ele>84.730000</ele>
                <time>2012-05-26T10:44:25Z</time>
            </trkpt>
            <trkpt lon="101.041430" lat="13.205101">
                <ele>77.520000</ele>
                <time>2012-05-26T10:44:55Z</time>
            </trkpt>
            <trkpt lon="101.041183" lat="13.205417">
                <ele>77.040000</ele>
                <time>2012-05-26T10:45:02Z</time>
            </trkpt>
            <trkpt lon="101.040986" lat="13.209452">
                <ele>74.160000</ele>
                <time>2012-05-26T10:46:11Z</time>
            </trkpt>
            <trkpt lon="101.040547" lat="13.209858">
                <ele>73.200000</ele>
                <time>2012-05-26T10:46:25Z</time>
            </trkpt>
            <trkpt lon="101.039725" lat="13.210071">
                <ele>72.240000</ele>
                <time>2012-05-26T10:46:40Z</time>
            </trkpt>
            <trkpt lon="101.039675" lat="13.210087">
                <ele>71.760000</ele>
                <time>2012-05-26T10:46:41Z</time>
            </trkpt>
            <trkpt lon="101.039545" lat="13.210312">
                <ele>72.240000</ele>
                <time>2012-05-26T10:46:48Z</time>
            </trkpt>
            <trkpt lon="101.039787" lat="13.210529">
                <ele>71.760000</ele>
                <time>2012-05-26T10:46:55Z</time>
            </trkpt>
            <trkpt lon="101.041070" lat="13.212749">
                <ele>73.680000</ele>
                <time>2012-05-26T10:47:36Z</time>
            </trkpt>
            <trkpt lon="101.045253" lat="13.214913">
                <ele>77.520000</ele>
                <time>2012-05-26T10:48:49Z</time>
            </trkpt>
            <trkpt lon="101.045417" lat="13.214998">
                <ele>77.520000</ele>
                <time>2012-05-26T10:48:52Z</time>
            </trkpt>
            <trkpt lon="101.046577" lat="13.215339">
                <ele>81.850000</ele>
                <time>2012-05-26T10:49:11Z</time>
            </trkpt>
            <trkpt lon="101.049884" lat="13.215299">
                <ele>96.270000</ele>
                <time>2012-05-26T10:50:13Z</time>
            </trkpt>
            <trkpt lon="101.052627" lat="13.215200">
                <ele>96.750000</ele>
                <time>2012-05-26T10:52:37Z</time>
            </trkpt>
            <trkpt lon="101.052626" lat="13.215276">
                <ele>94.830000</ele>
                <time>2012-05-26T11:50:39Z</time>
            </trkpt>
        </trkseg>
    </trk>
</gpx>